createdAt,value
2023-01-09T00:00:46.757Z,9.57
2023-01-09T00:03:14.191Z,10.20
2023-01-09T00:05:41.288Z,8.57
2023-01-09T00:08:08.478Z,9.53
2023-01-09T00:10:35.616Z,9.63
2023-01-09T00:13:02.824Z,9.63
2023-01-09T00:15:29.962Z,9.60
2023-01-09T00:17:57.072Z,9.70
2023-01-09T00:20:24.240Z,9.40
2023-01-09T00:22:51.368Z,10.10
2023-01-09T00:25:18.563Z,9.83
2023-01-09T00:27:45.689Z,9.77
2023-01-09T00:30:13.005Z,9.63
2023-01-09T00:32:40.742Z,11.53
2023-01-09T00:35:10.689Z,10.70
2023-01-09T00:37:37.813Z,11.27
2023-01-09T00:40:05.065Z,10.17
2023-01-09T00:42:35.185Z,10.03
2023-01-09T00:45:04.307Z,9.80
2023-01-09T00:47:36.761Z,10.77
2023-01-09T00:50:06.100Z,11.43
2023-01-09T00:52:35.889Z,10.43
2023-01-09T00:55:03.386Z,10.93
2023-01-09T00:57:30.671Z,10.73
2023-01-09T00:59:58.601Z,10.87
2023-01-09T01:02:25.890Z,10.13
2023-01-09T01:05:11.530Z,9.83
2023-01-09T01:07:38.655Z,10.03
2023-01-09T01:10:14.073Z,10.63
2023-01-09T01:12:41.424Z,10.13
2023-01-09T01:15:09.037Z,10.10
2023-01-09T01:17:37.142Z,10.47
2023-01-09T01:20:05.214Z,12.17
2023-01-09T01:22:32.888Z,10.77
2023-01-09T01:25:00.083Z,10.30
2023-01-09T01:27:28.396Z,10.00
2023-01-09T01:29:55.613Z,8.17
2023-01-09T01:32:22.786Z,7.53
2023-01-09T01:34:49.908Z,6.93
2023-01-09T01:37:17.036Z,7.47
2023-01-09T01:39:44.141Z,7.27
2023-01-09T01:42:13.557Z,7.13
2023-01-09T01:44:59.513Z,6.33
2023-01-09T01:47:31.954Z,5.67
2023-01-09T01:49:59.691Z,6.17
2023-01-09T01:52:26.961Z,6.33
2023-01-09T01:54:54.215Z,6.20
2023-01-09T01:57:21.352Z,5.87
2023-01-09T01:59:52.133Z,5.80
2023-01-09T02:02:20.702Z,6.90
2023-01-09T02:04:48.436Z,6.20
2023-01-09T02:07:15.540Z,6.10
2023-01-09T02:09:44.701Z,6.40
2023-01-09T02:12:29.659Z,6.77
2023-01-09T02:15:00.313Z,5.93
2023-01-09T02:17:41.702Z,6.50
2023-01-09T02:20:27.216Z,6.20
2023-01-09T02:22:54.289Z,6.70
2023-01-09T02:25:50.931Z,6.57
2023-01-09T02:28:35.351Z,6.90
2023-01-09T02:31:08.100Z,6.07
2023-01-09T02:33:38.240Z,6.43
2023-01-09T02:36:11.400Z,6.83
2023-01-09T02:38:47.678Z,6.77
2023-01-09T02:41:20.588Z,5.97
2023-01-09T02:43:47.744Z,6.30
2023-01-09T02:46:20.020Z,6.83
2023-01-09T02:48:47.267Z,6.70
2023-01-09T02:51:20.799Z,6.13
2023-01-09T02:53:55.125Z,6.40
2023-01-09T02:56:40.961Z,6.13
2023-01-09T02:59:11.118Z,5.47
2023-01-09T03:01:38.319Z,6.37
2023-01-09T03:04:12.664Z,5.07
2023-01-09T03:06:58.641Z,5.70
2023-01-09T03:09:27.701Z,5.90
2023-01-09T03:11:58.491Z,5.57
2023-01-09T03:14:26.675Z,5.17
2023-01-09T03:16:56.915Z,4.40
2023-01-09T03:19:27.705Z,4.70
2023-01-09T03:21:55.914Z,4.77
2023-01-09T03:24:23.026Z,4.70
2023-01-09T03:26:50.563Z,5.00
2023-01-09T03:29:17.716Z,5.03
2023-01-09T03:31:44.879Z,4.50
2023-01-09T03:34:12.068Z,3.67
2023-01-09T03:36:39.227Z,3.60
2023-01-09T03:39:06.329Z,3.60
2023-01-09T03:41:33.475Z,2.90
2023-01-09T03:44:00.580Z,2.73
2023-01-09T03:46:27.669Z,2.80
2023-01-09T03:48:54.755Z,2.47
2023-01-09T03:51:21.892Z,2.80
2023-01-09T03:53:49.014Z,2.57
2023-01-09T03:56:16.175Z,2.60
2023-01-09T03:58:43.270Z,2.60
2023-01-09T04:01:12.957Z,2.23
2023-01-09T04:03:40.365Z,2.60
2023-01-09T04:06:07.803Z,2.90
2023-01-09T04:08:34.983Z,3.23
2023-01-09T04:11:02.104Z,3.87
2023-01-09T04:13:29.346Z,4.13
2023-01-09T04:15:56.467Z,3.07
2023-01-09T04:18:23.576Z,3.10
2023-01-09T04:20:50.668Z,3.20
2023-01-09T04:23:17.784Z,3.27
2023-01-09T04:25:45.802Z,3.00
2023-01-09T04:28:12.911Z,3.40
2023-01-09T04:30:40.071Z,3.47
2023-01-09T04:33:07.246Z,3.17
2023-01-09T04:35:34.332Z,3.10
2023-01-09T04:38:01.497Z,3.10
2023-01-09T04:40:28.640Z,2.47
2023-01-09T04:42:55.743Z,3.00
2023-01-09T04:45:23.014Z,2.70
2023-01-09T04:47:50.193Z,2.50
2023-01-09T04:50:17.404Z,1.70
2023-01-09T04:52:44.561Z,1.30
2023-01-09T04:55:11.839Z,0.90
2023-01-09T04:57:38.985Z,1.03
2023-01-09T05:00:12.043Z,0.87
2023-01-09T05:02:39.187Z,0.60
2023-01-09T05:05:06.950Z,0.80
2023-01-09T05:07:34.920Z,0.83
2023-01-09T05:10:02.260Z,0.80
2023-01-09T05:12:29.423Z,0.80
2023-01-09T05:14:57.940Z,0.90
2023-01-09T05:17:25.083Z,0.80
2023-01-09T05:19:52.185Z,0.90
2023-01-09T05:22:19.280Z,0.90
2023-01-09T05:24:46.414Z,0.80
2023-01-09T05:27:13.618Z,0.80
2023-01-09T05:29:40.757Z,0.80
2023-01-09T05:32:07.871Z,0.87
2023-01-09T05:34:35.032Z,0.80
2023-01-09T05:37:02.174Z,1.07
2023-01-09T05:39:29.335Z,0.97
2023-01-09T05:41:56.467Z,1.00
2023-01-09T05:44:23.619Z,0.93
2023-01-09T05:46:50.719Z,0.90
2023-01-09T05:49:17.883Z,1.10
2023-01-09T05:51:45.023Z,0.97
2023-01-09T05:54:12.161Z,0.90
2023-01-09T05:56:39.269Z,0.93
2023-01-09T05:59:06.428Z,1.10
2023-01-09T06:01:33.579Z,0.97
2023-01-09T06:04:00.773Z,0.70
2023-01-09T06:06:27.946Z,0.80
2023-01-09T06:08:55.046Z,0.57
2023-01-09T06:11:22.143Z,0.60
2023-01-09T06:13:49.222Z,0.50
2023-01-09T06:16:16.386Z,0.70
2023-01-09T06:18:43.526Z,0.60
2023-01-09T06:21:10.609Z,0.70
2023-01-09T06:23:37.758Z,0.70
2023-01-09T06:26:04.909Z,0.60
2023-01-09T06:28:32.079Z,0.80
2023-01-09T06:30:59.309Z,0.90
2023-01-09T06:33:26.444Z,1.07
2023-01-09T06:35:53.605Z,0.90
2023-01-09T06:38:20.797Z,0.90
2023-01-09T06:40:47.957Z,0.63
2023-01-09T06:43:15.092Z,1.10
2023-01-09T06:45:45.343Z,0.73
2023-01-09T06:48:13.016Z,0.80
2023-01-09T06:50:40.354Z,0.80
2023-01-09T06:53:07.546Z,1.00
2023-01-09T06:55:34.667Z,1.00
2023-01-09T06:58:01.856Z,0.80
2023-01-09T07:00:31.418Z,0.90
2023-01-09T07:02:58.710Z,1.10
2023-01-09T07:05:25.970Z,1.00
2023-01-09T07:07:53.100Z,1.30
2023-01-09T07:10:20.522Z,1.27
2023-01-09T07:12:47.611Z,1.40
2023-01-09T07:15:14.846Z,1.30
2023-01-09T07:17:41.941Z,1.33
2023-01-09T07:20:09.401Z,1.20
2023-01-09T07:22:36.625Z,1.40
2023-01-09T07:25:03.765Z,1.47
2023-01-09T07:27:30.854Z,1.77
2023-01-09T07:29:58.058Z,1.30
2023-01-09T07:32:25.163Z,1.30
2023-01-09T07:34:52.616Z,1.00
2023-01-09T07:37:20.093Z,1.00
2023-01-09T07:39:47.307Z,1.00
2023-01-09T07:42:14.597Z,1.10
2023-01-09T07:44:41.757Z,1.10
2023-01-09T07:47:08.922Z,1.40
2023-01-09T07:49:36.091Z,1.03
2023-01-09T07:52:03.261Z,1.00
2023-01-09T07:54:30.407Z,1.10
2023-01-09T07:56:57.639Z,1.27
2023-01-09T07:59:25.995Z,1.30
2023-01-09T08:01:53.128Z,1.20
2023-01-09T08:04:20.292Z,1.30
2023-01-09T08:06:47.471Z,1.30
2023-01-09T08:09:15.148Z,1.33
2023-01-09T08:11:42.572Z,1.30
2023-01-09T08:14:09.708Z,1.30
2023-01-09T08:16:36.815Z,1.50
2023-01-09T08:19:03.915Z,1.50
2023-01-09T08:21:31.021Z,1.20
2023-01-09T08:23:58.164Z,1.30
2023-01-09T08:26:25.289Z,1.50
2023-01-09T08:28:52.458Z,1.40
2023-01-09T08:31:19.551Z,1.37
2023-01-09T08:33:46.703Z,1.40
2023-01-09T08:36:13.873Z,1.27
2023-01-09T08:38:41.042Z,1.30
2023-01-09T08:41:26.925Z,1.20
2023-01-09T08:44:13.012Z,1.13
2023-01-09T08:46:58.876Z,1.13
2023-01-09T08:49:26.022Z,1.17
2023-01-09T08:51:53.122Z,1.27
2023-01-09T08:54:20.377Z,1.23
2023-01-09T08:56:47.509Z,1.23
2023-01-09T08:59:14.657Z,1.00
2023-01-09T09:01:41.784Z,1.10
2023-01-09T09:04:08.901Z,1.40
2023-01-09T09:06:36.233Z,1.10
2023-01-09T09:09:03.822Z,1.10
2023-01-09T09:11:31.123Z,1.20
2023-01-09T09:13:58.488Z,0.93
2023-01-09T09:16:26.185Z,1.00
2023-01-09T09:18:53.841Z,1.20
2023-01-09T09:21:20.979Z,1.13
2023-01-09T09:23:48.074Z,1.27
2023-01-09T09:26:15.170Z,1.27
2023-01-09T09:28:42.299Z,1.43
2023-01-09T09:31:09.484Z,1.10
2023-01-09T09:33:36.657Z,1.67
2023-01-09T09:36:03.765Z,1.20
2023-01-09T09:38:30.916Z,1.30
2023-01-09T09:41:07.450Z,1.27
2023-01-09T09:44:01.951Z,1.40
2023-01-09T09:46:29.168Z,1.43
2023-01-09T09:49:03.025Z,1.47
2023-01-09T09:51:42.385Z,1.37
2023-01-09T09:54:18.445Z,1.53
2023-01-09T09:56:50.313Z,1.30
2023-01-09T09:59:22.091Z,1.60
2023-01-09T10:01:56.081Z,1.20
2023-01-09T10:04:24.695Z,1.30
2023-01-09T10:06:53.575Z,1.23
2023-01-09T10:09:32.903Z,1.00
2023-01-09T10:12:11.995Z,1.03
2023-01-09T10:14:39.668Z,1.10
2023-01-09T10:17:25.139Z,1.10
2023-01-09T10:19:52.347Z,1.17
2023-01-09T10:22:28.797Z,1.37
2023-01-09T10:25:01.816Z,1.17
2023-01-09T10:27:28.983Z,1.20
2023-01-09T10:30:07.346Z,1.20
2023-01-09T10:32:37.256Z,1.20
2023-01-09T10:35:23.256Z,1.00
2023-01-09T10:37:53.331Z,1.10
2023-01-09T10:40:20.519Z,1.13
2023-01-09T10:42:49.489Z,1.03
2023-01-09T10:45:21.928Z,1.00
2023-01-09T10:47:49.213Z,1.20
2023-01-09T10:50:19.485Z,1.10
2023-01-09T10:52:47.119Z,1.00
2023-01-09T10:55:14.299Z,0.90
2023-01-09T10:57:43.122Z,0.97
2023-01-09T11:00:36.760Z,0.90
2023-01-09T11:03:04.287Z,1.67
2023-01-09T11:05:32.812Z,0.90
2023-01-09T11:08:09.237Z,1.20
2023-01-09T11:10:52.945Z,0.70
2023-01-09T11:13:21.946Z,0.80
2023-01-09T11:16:07.473Z,1.00
2023-01-09T11:18:35.982Z,0.90
2023-01-09T11:21:26.608Z,0.70
2023-01-09T11:23:53.785Z,1.03
2023-01-09T11:26:28.197Z,1.10
2023-01-09T11:29:11.194Z,0.87
2023-01-09T11:31:38.824Z,0.70
2023-01-09T11:34:07.277Z,0.67
2023-01-09T11:36:34.513Z,0.70
2023-01-09T11:39:02.728Z,0.80
2023-01-09T11:41:34.468Z,0.80
2023-01-09T11:44:01.939Z,0.70
2023-01-09T11:46:40.940Z,1.00
2023-01-09T11:49:13.852Z,0.70
2023-01-09T11:51:41.799Z,0.70
2023-01-09T11:54:17.708Z,0.80
2023-01-09T11:56:45.473Z,0.77
2023-01-09T11:59:14.128Z,0.77
2023-01-09T12:01:41.240Z,0.70
2023-01-09T12:04:08.385Z,0.97
2023-01-09T12:06:35.523Z,0.90
2023-01-09T12:09:03.585Z,0.60
2023-01-09T12:11:32.898Z,0.90
2023-01-09T12:14:06.104Z,0.57
2023-01-09T12:16:52.012Z,0.90
2023-01-09T12:19:25.237Z,0.83
2023-01-09T12:22:01.321Z,0.70
2023-01-09T12:24:39.637Z,0.80
2023-01-09T12:27:06.922Z,0.60
2023-01-09T12:29:46.462Z,0.70
2023-01-09T12:32:19.651Z,0.60
2023-01-09T12:34:49.518Z,0.77
2023-01-09T12:37:18.059Z,0.70
2023-01-09T12:40:03.786Z,0.80
2023-01-09T12:42:38.222Z,0.70
2023-01-09T12:45:27.979Z,0.70
2023-01-09T12:48:00.348Z,0.80
2023-01-09T12:50:30.206Z,0.70
2023-01-09T12:53:03.475Z,0.60
2023-01-09T12:55:34.620Z,0.70
2023-01-09T12:58:04.333Z,0.70
2023-01-09T13:00:35.597Z,0.60
2023-01-09T13:03:21.593Z,0.70
2023-01-09T13:05:53.437Z,0.70
2023-01-09T13:08:26.483Z,0.70
2023-01-09T13:10:57.584Z,0.60
2023-01-09T13:13:30.870Z,0.50
2023-01-09T13:15:59.337Z,1.03
2023-01-09T13:18:32.737Z,0.63
2023-01-09T13:21:01.190Z,0.70
2023-01-09T13:23:31.396Z,0.80
2023-01-09T13:26:00.379Z,0.70
2023-01-09T13:28:31.604Z,0.60
2023-01-09T13:31:14.132Z,0.50
2023-01-09T13:33:43.953Z,0.60
2023-01-09T13:36:21.047Z,0.73
2023-01-09T13:38:49.905Z,0.50
2023-01-09T13:41:36.660Z,0.80
2023-01-09T13:44:07.831Z,0.60
2023-01-09T13:46:34.951Z,0.80
2023-01-09T13:49:03.737Z,0.60
2023-01-09T13:51:57.362Z,0.60
2023-01-09T13:54:43.093Z,0.80
2023-01-09T13:57:19.170Z,0.73
2023-01-09T13:59:47.837Z,0.60
2023-01-09T14:02:34.082Z,0.63
2023-01-09T14:05:01.832Z,0.80
2023-01-09T14:07:29.630Z,0.50
2023-01-09T14:10:01.417Z,0.60
2023-01-09T14:12:30.108Z,0.50
2023-01-09T14:14:59.440Z,0.60
2023-01-09T14:17:30.720Z,0.50
2023-01-09T14:19:58.825Z,0.40
2023-01-09T14:22:27.566Z,0.60
2023-01-09T14:24:56.672Z,0.70
2023-01-09T14:27:42.772Z,0.60
2023-01-09T14:30:28.477Z,0.40
2023-01-09T14:33:14.179Z,0.60
2023-01-09T14:35:43.667Z,0.60
2023-01-09T14:38:29.642Z,0.73
2023-01-09T14:41:00.790Z,0.60
2023-01-09T14:43:33.076Z,0.90
2023-01-09T14:46:05.380Z,0.93
2023-01-09T14:48:34.562Z,1.03
2023-01-09T14:51:02.698Z,0.87
2023-01-09T14:53:34.783Z,0.80
2023-01-09T14:56:06.025Z,0.50
2023-01-09T14:58:37.037Z,0.83
2023-01-09T15:01:04.172Z,0.80
2023-01-09T15:03:43.370Z,0.60
2023-01-09T15:06:14.028Z,0.60
2023-01-09T15:08:44.842Z,0.70
2023-01-09T15:11:12.676Z,0.60
2023-01-09T15:13:44.739Z,1.00
2023-01-09T15:16:22.681Z,0.97
2023-01-09T15:18:52.073Z,1.23
2023-01-09T15:21:20.827Z,0.83
2023-01-09T15:23:48.137Z,0.77
2023-01-09T15:26:24.399Z,0.80
2023-01-09T15:28:52.772Z,0.80
2023-01-09T15:31:21.571Z,0.73
2023-01-09T15:33:49.270Z,0.67
2023-01-09T15:36:19.096Z,0.90
2023-01-09T15:38:46.448Z,0.70
2023-01-09T15:41:36.425Z,0.90
2023-01-09T15:44:04.534Z,0.77
2023-01-09T15:46:31.737Z,0.90
2023-01-09T15:48:59.031Z,1.17
2023-01-09T15:51:26.185Z,1.00
2023-01-09T15:53:54.680Z,1.00
2023-01-09T15:56:33.315Z,1.83
2023-01-09T15:59:01.439Z,1.80
2023-01-09T16:01:32.864Z,1.10
2023-01-09T16:04:07.809Z,1.10
2023-01-09T16:06:37.138Z,1.00
2023-01-09T16:09:05.485Z,1.00
2023-01-09T16:11:36.864Z,1.50
2023-01-09T16:14:19.077Z,1.20
2023-01-09T16:16:47.206Z,1.20
2023-01-09T16:19:30.895Z,1.50
2023-01-09T16:21:59.020Z,1.40
2023-01-09T16:24:27.904Z,1.13
2023-01-09T16:27:13.630Z,2.37
2023-01-09T16:29:46.054Z,1.50
2023-01-09T16:32:18.624Z,1.53
2023-01-09T16:34:47.256Z,1.70
2023-01-09T16:37:14.731Z,1.43
2023-01-09T16:39:41.914Z,1.50
2023-01-09T16:42:28.420Z,1.83
2023-01-09T16:44:55.515Z,1.37
2023-01-09T16:47:22.663Z,1.07
2023-01-09T16:49:49.838Z,1.00
2023-01-09T16:52:17.615Z,0.93
2023-01-09T16:54:46.888Z,1.20
2023-01-09T16:57:17.088Z,1.13
2023-01-09T16:59:44.436Z,1.30
2023-01-09T17:02:19.130Z,1.27
2023-01-09T17:04:46.703Z,1.00
2023-01-09T17:07:14.492Z,1.20
2023-01-09T17:09:41.562Z,1.40
2023-01-09T17:12:27.989Z,1.30
2023-01-09T17:14:55.119Z,1.60
2023-01-09T17:17:22.340Z,1.20
2023-01-09T17:19:49.524Z,1.43
2023-01-09T17:22:17.836Z,1.50
2023-01-09T17:25:03.593Z,1.90
2023-01-09T17:27:53.700Z,1.90
2023-01-09T17:30:21.456Z,1.30
2023-01-09T17:32:49.138Z,1.30
2023-01-09T17:35:16.776Z,1.70
2023-01-09T17:37:44.114Z,1.43
2023-01-09T17:40:18.278Z,1.43
2023-01-09T17:42:45.414Z,1.60
2023-01-09T17:45:12.908Z,2.00
2023-01-09T17:47:40.056Z,1.70
2023-01-09T17:50:07.413Z,1.30
2023-01-09T17:52:34.557Z,1.40
2023-01-09T17:55:05.187Z,1.20
2023-01-09T17:57:33.120Z,1.40
2023-01-09T18:00:00.366Z,1.30
2023-01-09T18:02:27.564Z,1.17
2023-01-09T18:04:54.709Z,1.30
2023-01-09T18:07:21.888Z,1.20
2023-01-09T18:09:49.055Z,1.20
2023-01-09T18:12:16.227Z,1.30
2023-01-09T18:14:43.305Z,1.20
2023-01-09T18:17:13.145Z,1.20
2023-01-09T18:19:40.418Z,1.40
2023-01-09T18:22:07.504Z,1.50
2023-01-09T18:24:34.664Z,1.40
2023-01-09T18:27:01.828Z,1.50
2023-01-09T18:29:28.989Z,1.23
2023-01-09T18:31:56.142Z,1.40
2023-01-09T18:34:23.301Z,1.57
2023-01-09T18:36:50.393Z,1.33
2023-01-09T18:39:17.642Z,1.50
2023-01-09T18:41:44.771Z,1.40
2023-01-09T18:44:11.917Z,1.63
2023-01-09T18:46:40.728Z,1.40
2023-01-09T18:49:07.891Z,1.57
2023-01-09T18:51:38.275Z,1.40
2023-01-09T18:54:08.229Z,1.60
2023-01-09T18:56:35.703Z,1.30
2023-01-09T18:59:02.866Z,1.33
2023-01-09T19:01:30.642Z,1.37
2023-01-09T19:03:59.387Z,1.50
2023-01-09T19:06:27.209Z,1.57
2023-01-09T19:08:55.031Z,1.70
2023-01-09T19:11:22.144Z,1.53
2023-01-09T19:13:50.603Z,1.83
2023-01-09T19:16:18.108Z,1.80
2023-01-09T19:18:45.891Z,1.70
2023-01-09T19:21:17.486Z,1.60
2023-01-09T19:23:45.089Z,1.90
2023-01-09T19:26:32.574Z,1.53
2023-01-09T19:29:00.757Z,1.37
2023-01-09T19:31:29.029Z,1.53
2023-01-09T19:33:57.068Z,1.37
2023-01-09T19:36:24.218Z,1.30
2023-01-09T19:38:56.120Z,1.73
2023-01-09T19:41:23.276Z,1.43
2023-01-09T19:43:51.375Z,1.40
2023-01-09T19:46:19.987Z,1.50
2023-01-09T19:48:47.782Z,1.70
2023-01-09T19:51:15.833Z,1.50
2023-01-09T19:53:43.038Z,1.50
2023-01-09T19:56:14.303Z,1.50
2023-01-09T19:58:41.871Z,1.47
2023-01-09T20:01:16.351Z,1.50
2023-01-09T20:03:44.224Z,1.50
2023-01-09T20:06:14.227Z,1.50
2023-01-09T20:08:42.581Z,1.83
2023-01-09T20:11:09.829Z,1.90
2023-01-09T20:13:37.300Z,1.73
2023-01-09T20:16:05.084Z,1.60
2023-01-09T20:18:32.900Z,1.63
2023-01-09T20:21:00.059Z,1.70
2023-01-09T20:23:27.715Z,1.70
2023-01-09T20:25:55.211Z,1.70
2023-01-09T20:28:22.759Z,1.60
2023-01-09T20:30:51.665Z,1.40
2023-01-09T20:33:19.668Z,1.40
2023-01-09T20:35:47.010Z,1.50
2023-01-09T20:38:14.550Z,1.33
2023-01-09T20:40:44.524Z,1.53
2023-01-09T20:43:12.847Z,1.50
2023-01-09T20:45:40.861Z,1.40
2023-01-09T20:48:09.148Z,1.27
2023-01-09T20:50:36.320Z,1.30
2023-01-09T20:53:05.055Z,1.20
2023-01-09T20:55:33.622Z,1.40
2023-01-09T20:58:00.710Z,1.20
2023-01-09T21:00:31.880Z,1.20
2023-01-09T21:02:59.658Z,1.03
2023-01-09T21:05:26.943Z,1.30
2023-01-09T21:07:54.096Z,1.07
2023-01-09T21:10:21.205Z,1.10
2023-01-09T21:12:48.354Z,1.23
2023-01-09T21:15:17.754Z,1.17
2023-01-09T21:17:45.039Z,1.20
2023-01-09T21:20:13.783Z,1.00
2023-01-09T21:22:40.945Z,1.23
2023-01-09T21:25:08.376Z,1.50
2023-01-09T21:27:39.843Z,1.47
2023-01-09T21:30:08.233Z,1.50
2023-01-09T21:32:35.570Z,1.60
2023-01-09T21:35:06.798Z,1.10
2023-01-09T21:37:35.446Z,1.43
2023-01-09T21:40:02.692Z,1.53
2023-01-09T21:42:48.611Z,1.27
2023-01-09T21:45:35.262Z,1.60
2023-01-09T21:48:06.128Z,1.60
2023-01-09T21:50:36.585Z,1.77
2023-01-09T21:53:04.315Z,1.67
2023-01-09T21:55:34.401Z,1.50
2023-01-09T21:58:01.659Z,1.40
2023-01-09T22:00:29.254Z,1.60
2023-01-09T22:02:56.353Z,1.40
2023-01-09T22:05:27.290Z,1.50
2023-01-09T22:07:55.848Z,1.70
2023-01-09T22:10:23.050Z,1.60
2023-01-09T22:13:10.161Z,1.80
2023-01-09T22:15:37.364Z,1.60
2023-01-09T22:18:04.569Z,1.67
2023-01-09T22:20:31.692Z,1.70
2023-01-09T22:22:58.972Z,1.70
2023-01-09T22:25:26.151Z,1.77
2023-01-09T22:27:53.252Z,1.77
2023-01-09T22:30:20.441Z,1.67
2023-01-09T22:32:47.575Z,1.70
2023-01-09T22:35:14.711Z,1.77
2023-01-09T22:37:41.951Z,1.70
2023-01-09T22:40:09.537Z,1.67
2023-01-09T22:42:36.701Z,1.53
2023-01-09T22:45:03.891Z,1.60
2023-01-09T22:47:31.002Z,1.40
2023-01-09T22:49:58.089Z,1.63
2023-01-09T22:52:25.278Z,1.60
2023-01-09T22:54:52.365Z,1.67
2023-01-09T22:57:19.488Z,1.57
2023-01-09T22:59:46.591Z,1.70
2023-01-09T23:02:13.870Z,1.50
2023-01-09T23:04:41.057Z,1.50
2023-01-09T23:07:08.218Z,1.37
2023-01-09T23:09:35.337Z,1.67
2023-01-09T23:12:02.467Z,1.50
2023-01-09T23:14:33.698Z,1.40
2023-01-09T23:17:00.825Z,1.60
2023-01-09T23:19:27.950Z,1.57
2023-01-09T23:21:55.199Z,1.60
2023-01-09T23:24:22.343Z,1.63
2023-01-09T23:26:49.910Z,1.43
2023-01-09T23:29:17.073Z,1.53
2023-01-09T23:31:44.278Z,1.70
2023-01-09T23:34:14.287Z,1.70
2023-01-09T23:36:41.734Z,1.70
2023-01-09T23:39:10.099Z,1.87
2023-01-09T23:41:56.671Z,1.90
2023-01-09T23:44:23.914Z,1.60
2023-01-09T23:46:51.275Z,1.90
2023-01-09T23:49:18.460Z,1.97
2023-01-09T23:51:46.376Z,1.77
2023-01-09T23:54:14.108Z,1.70
2023-01-09T23:56:41.287Z,1.60
2023-01-09T23:59:11.867Z,1.50
